Time;durP1;ratioP1;P1;durP2;ratioP2;P2;SDS_P1;SDS_P2;PMS_P1;PMS_P2;Temp;Humidity;BMP_temperature;BMP_pressure;BME280_temperature;BME280_humidity;BME280_pressure;Samples;Min_cycle;Max_cycle;Signal;HPM_P1;HPM_P2
2023/02/13 00:01:49;;;;;;;;;;;;;;;26.89;18.75;102743.84;5077604;28;1126;-27
2023/02/13 00:04:15;;;;;;;;;;;;;;;26.23;19.48;102743.03;5078451;28;1088;-29
2023/02/13 00:06:40;;;;;;;;;;;;;;;26.87;19.17;102748.53;5078020;28;1120;-28
2023/02/13 00:09:09;;;;;;;;;;;;;;;25.84;19.82;102749.75;5077885;28;1196;-33
2023/02/13 00:11:35;;;;;;;;;;;;;;;25.88;19.95;102753.06;5060904;28;1063;-32
2023/02/13 00:14:00;;;;;;;;;;;;;;;27.37;18.24;102745.13;5077300;28;1886;-31
2023/02/13 00:16:25;;;;;;;;;;;;;;;25.61;20.47;102744.38;5077718;28;1839;-29
2023/02/13 00:18:51;;;;;;;;;;;;;;;25.84;19.72;102747.06;5078325;28;1019;-26
2023/02/13 00:21:16;;;;;;;;;;;;;;;26.38;19.36;102752.59;5076409;28;1028;-27
2023/02/13 00:23:41;;;;;;;;;;;;;;;26.33;19.19;102751.25;5065307;28;1043;-29
2023/02/13 00:26:08;;;;;;;;;;;;;;;27.52;18.08;102758.25;5077307;28;1166;-28
2023/02/13 00:28:33;;;;;;;;;;;;;;;26.00;20.00;102753.91;5077255;28;1059;-29
2023/02/13 00:31:02;;;;;;;;;;;;;;;27.07;18.52;102759.47;5077465;28;1064;-29
2023/02/13 00:33:28;;;;;;;;;;;;;;;26.88;18.86;102764.59;5077041;28;1898;-28
2023/02/13 00:36:00;;;;;;;;;;;;;;;27.14;18.50;102766.06;5077495;28;1141;-30
2023/02/13 00:38:26;;;;;;;;;;;;;;;27.37;18.41;102768.56;5077502;28;1003;-27
2023/02/13 00:40:51;;;;;;;;;;;;;;;27.21;18.27;102771.78;5059166;28;1167;-29
2023/02/13 00:43:16;;;;;;;;;;;;;;;27.09;18.80;102779.94;5077426;28;1257;-28
2023/02/13 00:45:41;;;;;;;;;;;;;;;27.14;18.50;102779.56;5076946;28;1056;-27
2023/02/13 00:48:07;;;;;;;;;;;;;;;27.22;18.60;102795.09;5066063;28;1100;-31
2023/02/13 00:50:32;;;;;;;;;;;;;;;27.17;18.31;102781.13;5075102;28;1239;-31
2023/02/13 00:52:57;;;;;;;;;;;;;;;28.02;17.81;102780.91;5077288;28;1967;-30
2023/02/13 00:55:23;;;;;;;;;;;;;;;27.64;18.26;102775.22;5076834;28;1058;-30
2023/02/13 00:57:48;;;;;;;;;;;;;;;26.65;18.59;102780.94;5076898;28;1202;-28
2023/02/13 01:00:14;;;;;;;;;;;;;;;26.00;19.63;102775.47;5076602;28;1091;-28
2023/02/13 01:02:39;;;;;;;;;;;;;;;27.02;18.63;102786.88;5073673;28;1194;-29
2023/02/13 01:05:04;;;;;;;;;;;;;;;27.53;18.22;102791.56;5072263;28;1072;-32
2023/02/13 01:07:30;;;;;;;;;;;;;;;27.40;18.22;102787.22;5076990;28;1028;-27
2023/02/13 01:09:55;;;;;;;;;;;;;;;27.69;17.98;102782.97;5076481;28;1150;-32
2023/02/13 01:12:20;;;;;;;;;;;;;;;27.45;18.17;102778.69;5076756;28;1893;-27
2023/02/13 01:14:45;;;;;;;;;;;;;;;27.61;18.31;102776.34;5076604;28;1116;-29
2023/02/13 01:17:11;;;;;;;;;;;;;;;27.53;17.97;102773.47;5073318;28;2615;-28
2023/02/13 01:19:36;;;;;;;;;;;;;;;27.17;18.12;102775.72;5075834;28;1044;-29
2023/02/13 01:22:01;;;;;;;;;;;;;;;26.12;19.33;102773.63;5076763;28;1075;-32
2023/02/13 01:24:28;;;;;;;;;;;;;;;26.42;19.04;102772.06;5076160;28;1066;-29
2023/02/13 01:26:54;;;;;;;;;;;;;;;25.77;19.95;102759.34;5076249;28;1032;-31
2023/02/13 01:29:19;;;;;;;;;;;;;;;26.15;19.58;102767.97;5076037;28;1027;-34
2023/02/13 01:31:44;;;;;;;;;;;;;;;25.49;19.97;102761.56;5076417;28;1130;-28
2023/02/13 01:34:10;;;;;;;;;;;;;;;25.59;20.18;102767.88;5076431;28;1898;-28
2023/02/13 01:36:35;;;;;;;;;;;;;;;27.47;18.39;102766.78;5076265;28;1098;-28
2023/02/13 01:39:00;;;;;;;;;;;;;;;26.41;19.28;102771.22;5075990;28;1156;-28
2023/02/13 01:41:26;;;;;;;;;;;;;;;26.81;18.92;102768.81;5076409;28;1087;-29
2023/02/13 01:43:51;;;;;;;;;;;;;;;26.01;19.33;102769.09;5076297;28;1119;-30
2023/02/13 01:46:20;;;;;;;;;;;;;;;26.29;19.20;102766.81;5071173;28;2403;-27
2023/02/13 01:48:45;;;;;;;;;;;;;;;26.75;19.15;102766.63;5070556;28;1095;-29
2023/02/13 01:51:12;;;;;;;;;;;;;;;26.70;18.71;102775.13;5075715;28;1339;-28
2023/02/13 01:53:40;;;;;;;;;;;;;;;26.93;18.56;102776.81;5048110;28;1967;-30
2023/02/13 01:56:18;;;;;;;;;;;;;;;26.84;18.39;102778.50;5075961;28;1132;-32
2023/02/13 01:58:43;;;;;;;;;;;;;;;27.49;17.93;102766.66;5076029;28;1087;-32
2023/02/13 02:01:09;;;;;;;;;;;;;;;27.38;18.22;102772.97;5058120;28;1108;-30
2023/02/13 02:03:43;;;;;;;;;;;;;;;27.41;18.12;102775.41;5057647;28;1202;-30
2023/02/13 02:06:10;;;;;;;;;;;;;;;27.11;18.28;102777.13;5075956;28;1063;-28
2023/02/13 02:08:35;;;;;;;;;;;;;;;27.25;18.15;102775.91;5057795;28;1721;-28
2023/02/13 02:11:02;;;;;;;;;;;;;;;27.23;18.41;102773.34;5075703;28;1042;-29
2023/02/13 02:13:28;;;;;;;;;;;;;;;27.44;18.15;102775.16;5075996;28;1894;-32
2023/02/13 02:15:53;;;;;;;;;;;;;;;26.47;18.81;102771.69;5073533;28;2228;-30
2023/02/13 02:18:20;;;;;;;;;;;;;;;25.85;19.23;102777.59;5073331;28;980;-29
2023/02/13 02:20:51;;;;;;;;;;;;;;;27.00;18.13;102776.19;5076198;28;1012;-30
2023/02/13 02:23:29;;;;;;;;;;;;;;;27.07;18.13;102786.47;5075533;28;1158;-30
2023/02/13 02:26:13;;;;;;;;;;;;;;;26.46;18.76;102786.19;5076021;28;1151;-29
2023/02/13 02:28:44;;;;;;;;;;;;;;;25.94;19.52;102784.94;5075509;28;928;-26
2023/02/13 02:31:18;;;;;;;;;;;;;;;27.34;17.71;102785.91;5075237;28;1178;-29
2023/02/13 02:33:53;;;;;;;;;;;;;;;25.88;19.31;102783.59;5057504;28;1902;-26
2023/02/13 02:36:28;;;;;;;;;;;;;;;26.33;19.14;102778.22;5075254;28;1028;-28
2023/02/13 02:39:06;;;;;;;;;;;;;;;26.42;18.69;102785.56;5057566;28;1024;-30
2023/02/13 02:41:40;;;;;;;;;;;;;;;26.63;18.89;102798.22;5057503;28;1012;-30
2023/02/13 02:44:12;;;;;;;;;;;;;;;26.69;18.89;102799.56;5075734;28;1059;-28
2023/02/13 02:49:57;;;;;;;;;;;;;;;26.67;18.67;102806.94;5067642;28;1833;-27
2023/02/13 02:52:19;;;;;;;;;;;;;;;26.90;18.75;102805.84;5059328;28;1303;-28
2023/02/13 03:06:09;;;;;;;;;;;;;;;27.50;17.81;102808.88;5060124;28;965;-30
2023/02/13 03:13:55;;;;;;;;;;;;;;;27.13;18.33;102813.81;5063010;28;1969;-29
2023/02/13 03:24:59;;;;;;;;;;;;;;;27.31;18.41;102804.25;5059921;28;1090;-29
2023/02/13 03:30:33;;;;;;;;;;;;;;;27.17;18.28;102814.41;5069541;28;946;-29
2023/02/13 03:33:08;;;;;;;;;;;;;;;27.35;18.12;102816.50;5078704;28;1910;-30
2023/02/13 03:38:26;;;;;;;;;;;;;;;27.31;17.80;102810.50;5078553;28;1004;-28
2023/02/13 03:43:41;;;;;;;;;;;;;;;26.84;18.34;102810.91;5063338;28;1296;-32
2023/02/13 03:46:07;;;;;;;;;;;;;;;27.18;18.16;102809.84;5056533;28;2532;-28
2023/02/13 03:51:37;;;;;;;;;;;;;;;26.81;18.52;102814.69;5063086;28;1235;-30
2023/02/13 03:54:15;;;;;;;;;;;;;;;26.96;18.21;102804.44;5074858;28;1997;-29
2023/02/13 03:59:27;;;;;;;;;;;;;;;27.34;17.78;102806.69;5066456;28;954;-30
2023/02/13 04:02:04;;;;;;;;;;;;;;;27.38;17.84;102814.38;5060332;28;1127;-28
2023/02/13 04:04:32;;;;;;;;;;;;;;;27.22;18.05;102803.22;5059797;28;1071;-27
2023/02/13 04:07:11;;;;;;;;;;;;;;;27.17;18.21;102810.84;5060183;28;1227;-31
2023/02/13 04:09:37;;;;;;;;;;;;;;;27.27;18.29;102814.47;5059843;28;1459;-30
2023/02/13 04:12:02;;;;;;;;;;;;;;;27.14;18.09;102807.41;5077685;28;1133;-27
2023/02/13 04:14:38;;;;;;;;;;;;;;;27.59;17.69;102812.63;5077613;28;1902;-30
2023/02/13 04:17:05;;;;;;;;;;;;;;;27.21;17.99;102809.63;5077358;28;2331;-30
2023/02/13 04:19:31;;;;;;;;;;;;;;;27.09;18.02;102811.53;5059677;28;1108;-29
2023/02/13 04:21:56;;;;;;;;;;;;;;;27.53;18.04;102813.19;5060318;28;1111;-28
2023/02/13 04:24:22;;;;;;;;;;;;;;;27.08;17.99;102817.91;5077726;28;1187;-29
2023/02/13 04:26:47;;;;;;;;;;;;;;;27.35;17.79;102820.06;5077427;28;988;-29
2023/02/13 04:29:12;;;;;;;;;;;;;;;27.00;18.20;102814.00;5077869;28;1015;-30
2023/02/13 04:31:39;;;;;;;;;;;;;;;26.98;18.42;102813.28;5078170;28;1083;-29
2023/02/13 04:34:04;;;;;;;;;;;;;;;27.35;17.96;102816.50;5077504;28;1957;-30
2023/02/13 04:36:29;;;;;;;;;;;;;;;27.19;18.00;102814.28;5077828;28;1059;-28
2023/02/13 04:38:54;;;;;;;;;;;;;;;27.35;17.97;102809.25;5077045;28;1000;-32
2023/02/13 04:41:20;;;;;;;;;;;;;;;27.40;17.60;102808.84;5077578;28;1182;-29
2023/02/13 04:43:45;;;;;;;;;;;;;;;21.45;16.63;102799.28;5077003;28;1103;-28
2023/02/13 04:46:10;;;;;;;;;;;;;;;21.33;15.91;102792.84;5077561;28;2224;-31
2023/02/13 04:48:36;;;;;;;;;;;;;;;21.40;15.57;102789.69;5077062;28;1015;-26
2023/02/13 04:51:01;;;;;;;;;;;;;;;21.83;15.95;102795.19;5077203;28;1235;-31
2023/02/13 04:53:26;;;;;;;;;;;;;;;22.01;16.51;102803.88;5076804;28;1977;-26
2023/02/13 04:55:52;;;;;;;;;;;;;;;24.78;16.44;102809.13;5077475;28;1039;-29
2023/02/13 04:58:17;;;;;;;;;;;;;;;26.87;15.00;102807.94;5077312;28;1115;-28
2023/02/13 05:00:43;;;;;;;;;;;;;;;27.06;15.10;102822.59;5077054;28;1127;-32
2023/02/13 05:03:09;;;;;;;;;;;;;;;27.50;15.19;102814.28;5076923;28;1008;-28
2023/02/13 05:05:35;;;;;;;;;;;;;;;27.89;15.01;102820.88;5076744;28;1131;-32
2023/02/13 05:08:00;;;;;;;;;;;;;;;28.47;14.89;102828.28;5076643;28;1003;-30
2023/02/13 05:10:25;;;;;;;;;;;;;;;28.09;15.29;102819.06;5076768;28;1159;-29
2023/02/13 05:12:50;;;;;;;;;;;;;;;28.35;15.04;102832.97;5076474;28;1958;-29
2023/02/13 05:15:16;;;;;;;;;;;;;;;28.71;14.99;102831.56;5076243;28;1326;-32
2023/02/13 05:17:44;;;;;;;;;;;;;;;28.84;14.97;102839.38;5065720;28;2397;-32
2023/02/13 05:20:10;;;;;;;;;;;;;;;28.65;15.20;102840.22;5076337;28;1227;-33
2023/02/13 05:25:19;;;;;;;;;;;;;;;28.80;15.24;102840.66;5076200;28;994;-28
2023/02/13 05:27:44;;;;;;;;;;;;;;;28.75;15.29;102841.09;5076271;28;1028;-28
2023/02/13 05:30:10;;;;;;;;;;;;;;;28.76;15.02;102833.81;5076265;28;903;-29
2023/02/13 05:32:36;;;;;;;;;;;;;;;28.77;15.63;102840.94;5076229;28;1965;-29
2023/02/13 05:35:01;;;;;;;;;;;;;;;26.67;14.46;102842.03;5076185;28;1118;-30
2023/02/13 05:37:27;;;;;;;;;;;;;;;25.02;15.95;102838.75;5070413;28;1084;-30
2023/02/13 05:39:52;;;;;;;;;;;;;;;24.51;15.11;102843.38;5068509;28;1005;-30
2023/02/13 05:42:17;;;;;;;;;;;;;;;24.40;14.70;102854.09;5076035;28;1000;-31
2023/02/13 05:44:42;;;;;;;;;;;;;;;24.41;14.90;102853.97;5076128;28;1040;-29
2023/02/13 05:47:08;;;;;;;;;;;;;;;26.74;15.75;102851.31;5076057;28;2575;-28
2023/02/13 05:49:33;;;;;;;;;;;;;;;28.67;14.72;102859.91;5076417;28;1099;-29
2023/02/13 05:51:58;;;;;;;;;;;;;;;29.09;14.85;102858.78;5075060;28;1297;-30
2023/02/13 05:54:24;;;;;;;;;;;;;;;29.45;14.57;102860.81;5075627;28;1977;-29
2023/02/13 05:56:49;;;;;;;;;;;;;;;29.63;14.45;102860.91;5075791;28;1270;-27
2023/02/13 05:59:14;;;;;;;;;;;;;;;29.73;14.56;102868.16;5075749;28;1171;-27
2023/02/13 06:01:39;;;;;;;;;;;;;;;29.86;14.57;102865.97;5075930;28;1211;-28
2023/02/13 06:04:05;;;;;;;;;;;;;;;29.88;14.43;102868.53;5075532;28;1238;-28
2023/02/13 06:06:30;;;;;;;;;;;;;;;29.85;14.45;102866.97;5073414;28;1222;-28
2023/02/13 06:08:55;;;;;;;;;;;;;;;30.00;14.64;102861.88;5075596;28;1207;-29
2023/02/13 06:11:21;;;;;;;;;;;;;;;30.01;14.48;102866.28;5076183;28;1023;-27
2023/02/13 06:13:46;;;;;;;;;;;;;;;30.14;14.46;102862.38;5075874;28;1894;-28
2023/02/13 06:16:11;;;;;;;;;;;;;;;30.26;14.21;102863.06;5071770;28;1801;-30
2023/02/13 06:18:37;;;;;;;;;;;;;;;30.21;14.42;102865.38;5072055;28;1006;-29
2023/02/13 06:21:03;;;;;;;;;;;;;;;29.57;15.26;102862.34;5075967;28;955;-29
2023/02/13 06:23:28;;;;;;;;;;;;;;;29.46;15.79;102865.25;5075870;28;1096;-32
2023/02/13 06:25:54;;;;;;;;;;;;;;;29.45;15.85;102863.50;5075873;28;1019;-31
2023/02/13 06:28:19;;;;;;;;;;;;;;;28.08;17.24;102857.94;5075658;28;1019;-31
2023/02/13 06:30:44;;;;;;;;;;;;;;;29.30;16.09;102864.00;5075566;28;921;-27
2023/02/13 06:33:09;;;;;;;;;;;;;;;29.53;15.72;102857.38;5075117;28;1898;-29
2023/02/13 06:35:35;;;;;;;;;;;;;;;28.97;16.31;102866.19;5075726;28;1183;-28
2023/02/13 06:38:00;;;;;;;;;;;;;;;27.95;17.08;102861.75;5075841;28;999;-27
2023/02/13 06:40:25;;;;;;;;;;;;;;;28.78;16.66;102864.34;5075642;28;1087;-30
2023/02/13 06:42:51;;;;;;;;;;;;;;;28.08;17.34;102857.94;5074657;28;1037;-27
2023/02/13 06:45:16;;;;;;;;;;;;;;;28.26;16.70;102868.94;5074885;28;1278;-26
2023/02/13 06:47:42;;;;;;;;;;;;;;;27.35;17.75;102867.84;5070135;28;2239;-29
2023/02/13 06:50:07;;;;;;;;;;;;;;;26.98;17.96;102870.00;5058037;28;1016;-28
2023/02/13 06:52:33;;;;;;;;;;;;;;;27.33;18.20;102864.41;5063699;28;1065;-28
2023/02/13 06:54:59;;;;;;;;;;;;;;;28.30;17.30;102864.97;5066972;28;977;-30
2023/02/13 06:57:24;;;;;;;;;;;;;;;28.30;17.42;102869.50;5061570;28;1038;-25
2023/02/13 06:59:50;;;;;;;;;;;;;;;28.82;16.38;102871.16;5075835;28;1246;-27
2023/02/13 07:02:15;;;;;;;;;;;;;;;28.09;17.17;102862.38;5076091;28;1219;-29
2023/02/13 07:04:40;;;;;;;;;;;;;;;27.65;17.88;102862.59;5065880;28;1047;-28
2023/02/13 07:07:05;;;;;;;;;;;;;;;27.66;18.12;102867.84;5078596;28;990;-27
2023/02/13 07:09:31;;;;;;;;;;;;;;;27.67;18.39;102869.59;5079426;28;1234;-32
2023/02/13 07:11:56;;;;;;;;;;;;;;;27.74;18.04;102861.81;5079167;28;980;-30
2023/02/13 07:14:21;;;;;;;;;;;;;;;27.62;18.30;102864.59;5065613;28;1967;-27
2023/02/13 07:16:47;;;;;;;;;;;;;;;27.24;18.34;102863.38;5070033;28;1883;-28
2023/02/13 07:19:12;;;;;;;;;;;;;;;27.18;18.78;102866.59;5059480;28;1120;-31
2023/02/13 07:21:37;;;;;;;;;;;;;;;26.81;19.04;102863.31;5071920;28;2289;-31
2023/02/13 07:24:03;;;;;;;;;;;;;;;26.67;19.30;102859.09;5076975;28;929;-29
2023/02/13 07:26:28;;;;;;;;;;;;;;;26.63;19.36;102857.63;5065464;28;2471;-27
2023/02/13 07:28:53;;;;;;;;;;;;;;;26.72;19.29;102853.28;5065351;28;1883;-30
2023/02/13 07:31:19;;;;;;;;;;;;;;;26.76;19.00;102850.19;5069300;28;2031;-32
2023/02/13 07:33:47;;;;;;;;;;;;;;;26.33;17.44;102854.63;5074685;28;2185;-26
2023/02/13 07:36:12;;;;;;;;;;;;;;;26.41;19.68;102856.69;5066790;28;1785;-29
2023/02/13 07:38:37;;;;;;;;;;;;;;;26.67;19.03;102861.78;5075493;28;2142;-31
2023/02/13 07:41:03;;;;;;;;;;;;;;;26.41;19.38;102851.31;5077217;28;1071;-29
2023/02/13 07:43:28;;;;;;;;;;;;;;;26.26;19.65;102851.56;5078370;28;901;-27
2023/02/13 07:45:55;;;;;;;;;;;;;;;26.36;19.79;102843.59;5078564;28;1115;-28
2023/02/13 07:48:26;;;;;;;;;;;;;;;25.21;21.43;102844.56;5056483;28;1191;-32
2023/02/13 07:50:51;;;;;;;;;;;;;;;25.36;20.85;102842.50;5066910;28;1456;-30
2023/02/13 07:53:16;;;;;;;;;;;;;;;25.22;21.39;102836.34;5071506;28;1902;-30
2023/02/13 07:55:41;;;;;;;;;;;;;;;24.99;21.36;102812.03;5063448;28;1728;-31
2023/02/13 07:58:07;;;;;;;;;;;;;;;26.09;20.01;102830.50;5074694;28;2216;-31
2023/02/13 08:00:32;;;;;;;;;;;;;;;26.20;19.80;102818.81;5071043;28;2073;-31
2023/02/13 08:02:58;;;;;;;;;;;;;;;26.02;19.98;102824.75;5065574;28;2544;-32
2023/02/13 08:05:24;;;;;;;;;;;;;;;24.78;21.79;102826.16;5071041;28;1879;-28
2023/02/13 08:07:49;;;;;;;;;;;;;;;25.91;20.81;102831.88;5071370;28;1792;-35
2023/02/13 08:12:58;;;;;;;;;;;;;;;27.47;18.61;102842.47;5073642;28;2052;-29
2023/02/13 08:15:24;;;;;;;;;;;;;;;26.60;19.48;102834.44;5064316;28;1094;-30
2023/02/13 08:17:50;;;;;;;;;;;;;;;25.39;21.05;102840.41;5064109;28;1147;-31
2023/02/13 08:20:15;;;;;;;;;;;;;;;27.02;19.68;102841.78;5072371;28;1194;-30
2023/02/13 08:22:40;;;;;;;;;;;;;;;27.98;18.68;102841.66;5077658;28;1310;-31
2023/02/13 08:25:06;;;;;;;;;;;;;;;27.50;18.67;102844.03;5078064;28;1289;-28
2023/02/13 08:27:31;;;;;;;;;;;;;;;26.58;19.27;102844.50;5064430;28;1086;-31
2023/02/13 08:29:57;;;;;;;;;;;;;;;25.47;21.47;102841.66;5066339;28;1206;-32
2023/02/13 08:32:22;;;;;;;;;;;;;;;25.10;22.02;102831.91;5077613;28;1015;-30
2023/02/13 08:34:47;;;;;;;;;;;;;;;24.99;22.24;102840.81;5077321;28;1902;-31
2023/02/13 08:37:13;;;;;;;;;;;;;;;24.99;21.93;102830.88;5057494;28;1110;-29
2023/02/13 08:39:38;;;;;;;;;;;;;;;25.18;21.93;102833.03;5071028;28;1116;-29
2023/02/13 08:42:03;;;;;;;;;;;;;;;25.74;21.40;102833.22;5076016;28;1793;-30
2023/02/13 08:44:29;;;;;;;;;;;;;;;26.61;19.80;102840.72;5077410;28;1078;-31
2023/02/13 08:46:54;;;;;;;;;;;;;;;26.63;19.66;102827.91;5064430;28;1131;-31
2023/02/13 08:49:19;;;;;;;;;;;;;;;26.60;20.19;102833.56;5077039;28;1267;-30
2023/02/13 08:51:45;;;;;;;;;;;;;;;26.29;20.34;102845.06;5066794;28;1318;-30
2023/02/13 08:54:10;;;;;;;;;;;;;;;26.55;19.80;102839.38;5078174;28;1963;-31
2023/02/13 08:56:35;;;;;;;;;;;;;;;25.95;20.90;102832.50;5069455;28;1196;-29
2023/02/13 08:59:01;;;;;;;;;;;;;;;27.01;19.82;102828.34;5076526;28;1100;-28
2023/02/13 09:01:26;;;;;;;;;;;;;;;26.96;19.42;102834.13;5073537;28;1223;-29
2023/02/13 09:03:51;;;;;;;;;;;;;;;26.82;19.61;102831.78;5065158;28;1705;-31
2023/02/13 09:06:16;;;;;;;;;;;;;;;26.81;19.97;102819.28;5066000;28;1453;-33
2023/02/13 09:08:42;;;;;;;;;;;;;;;28.41;18.13;102817.16;5072981;28;1250;-33
2023/02/13 09:11:08;;;;;;;;;;;;;;;27.83;18.37;102819.56;5069776;28;1219;-30
2023/02/13 09:13:34;;;;;;;;;;;;;;;27.26;19.02;102813.59;5071993;28;2214;-30
2023/02/13 09:15:59;;;;;;;;;;;;;;;26.62;20.16;102815.41;5070941;28;1258;-32
2023/02/13 09:18:25;;;;;;;;;;;;;;;28.26;18.46;102817.50;5061472;28;1163;-28
2023/02/13 09:20:55;;;;;;;;;;;;;;;28.58;18.16;102815.56;5069879;28;1104;-31
2023/02/13 09:23:21;;;;;;;;;;;;;;;27.71;18.58;102811.56;5057743;28;1027;-29
2023/02/13 09:25:46;;;;;;;;;;;;;;;27.41;19.14;102809.72;5067454;28;992;-30
2023/02/13 09:28:11;;;;;;;;;;;;;;;26.27;20.47;102803.84;5064982;28;1195;-31
2023/02/13 09:30:36;;;;;;;;;;;;;;;27.75;19.25;102798.63;5067029;28;1203;-31
2023/02/13 09:33:02;;;;;;;;;;;;;;;27.57;18.67;102796.56;5069795;28;1898;-29
2023/02/13 09:35:28;;;;;;;;;;;;;;;27.20;19.51;102780.88;5062367;28;1080;-29
2023/02/13 09:37:53;;;;;;;;;;;;;;;27.34;19.44;102777.78;5072514;28;1155;-28
2023/02/13 09:40:20;;;;;;;;;;;;;;;28.66;18.27;102775.09;5075477;28;1171;-28
2023/02/13 09:42:45;;;;;;;;;;;;;;;28.46;18.03;102769.69;5045245;28;2182;-30
2023/02/13 09:45:10;;;;;;;;;;;;;;;27.65;18.77;102762.53;5041810;28;1028;-27
2023/02/13 09:47:36;;;;;;;;;;;;;;;27.50;18.95;102758.41;5043350;28;1097;-27
2023/02/13 09:50:03;;;;;;;;;;;;;;;28.44;18.28;102760.03;5048368;28;1253;-28
2023/02/13 09:52:31;;;;;;;;;;;;;;;28.14;17.92;102751.00;5051618;28;1172;-32
2023/02/13 09:54:57;;;;;;;;;;;;;;;27.60;18.43;102753.00;5063783;28;1902;-29
2023/02/13 09:57:33;;;;;;;;;;;;;;;27.56;19.22;102742.63;5062236;28;1143;-29
2023/02/13 10:00:14;;;;;;;;;;;;;;;28.82;17.63;102733.88;5048427;28;1179;-30
2023/02/13 10:02:43;;;;;;;;;;;;;;;28.94;17.40;102731.88;5043844;28;1017;-29
2023/02/13 10:05:17;;;;;;;;;;;;;;;27.60;18.29;102725.97;5072116;28;1096;-29
2023/02/13 10:07:42;;;;;;;;;;;;;;;27.46;18.22;102732.63;5075218;28;968;-31
2023/02/13 10:10:27;;;;;;;;;;;;;;;28.04;18.47;102721.25;5065872;28;1301;-28
2023/02/13 10:12:55;;;;;;;;;;;;;;;28.89;17.60;102720.63;5060699;28;1981;-29
2023/02/13 10:15:20;;;;;;;;;;;;;;;27.68;18.28;102708.19;5037193;28;1000;-28
2023/02/13 10:17:46;;;;;;;;;;;;;;;27.86;18.49;102706.56;5068710;28;1116;-30
2023/02/13 10:20:25;;;;;;;;;;;;;;;27.73;18.72;102703.25;5043360;28;959;-29
2023/02/13 10:23:03;;;;;;;;;;;;;;;27.98;18.22;102701.88;5070443;28;1064;-30
2023/02/13 10:25:29;;;;;;;;;;;;;;;27.97;17.98;102694.75;5054019;28;1008;-30
2023/02/13 10:27:59;;;;;;;;;;;;;;;27.74;18.12;102695.00;5040957;28;1051;-27
2023/02/13 10:30:25;;;;;;;;;;;;;;;28.49;18.23;102692.78;5055767;28;1516;-27
2023/02/13 10:33:19;;;;;;;;;;;;;;;28.14;18.32;102695.06;5069026;28;1967;-31
2023/02/13 10:35:47;;;;;;;;;;;;;;;28.10;18.25;102694.47;5057256;28;1124;-31
2023/02/13 10:38:16;;;;;;;;;;;;;;;27.96;18.35;102687.63;5059814;28;973;-27
2023/02/13 10:40:54;;;;;;;;;;;;;;;27.47;19.51;102692.94;5061898;28;1266;-29
2023/02/13 10:43:19;;;;;;;;;;;;;;;28.13;18.33;102677.09;5074118;28;2054;-29
2023/02/13 10:46:06;;;;;;;;;;;;;;;28.11;18.28;102677.25;5066147;28;1051;-28
2023/02/13 10:48:44;;;;;;;;;;;;;;;28.11;18.55;102679.94;5061434;28;984;-28
2023/02/13 10:51:28;;;;;;;;;;;;;;;28.22;17.96;102680.78;5061328;28;1230;-30
2023/02/13 10:53:53;;;;;;;;;;;;;;;28.23;18.24;102672.53;5059596;28;1980;-31
2023/02/13 10:56:33;;;;;;;;;;;;;;;28.23;18.25;102663.56;5071936;28;1221;-27
2023/02/13 10:59:22;;;;;;;;;;;;;;;28.15;18.42;102661.56;5049690;28;1057;-33
2023/02/13 11:01:55;;;;;;;;;;;;;;;28.31;18.41;102660.97;5060401;28;1188;-29
2023/02/13 11:04:20;;;;;;;;;;;;;;;28.39;18.19;102660.31;5060972;28;1236;-29
2023/02/13 11:06:59;;;;;;;;;;;;;;;28.40;18.28;102658.44;5078653;28;1206;-27
2023/02/13 11:09:24;;;;;;;;;;;;;;;28.44;18.07;102651.75;5078359;28;1196;-30
2023/02/13 11:11:49;;;;;;;;;;;;;;;28.40;18.14;102643.06;5074958;28;1944;-28
2023/02/13 11:14:16;;;;;;;;;;;;;;;28.44;18.20;102649.03;5067724;28;1963;-29
2023/02/13 11:16:49;;;;;;;;;;;;;;;28.50;18.06;102643.03;5058767;28;1067;-30
2023/02/13 11:19:34;;;;;;;;;;;;;;;28.52;18.40;102645.59;5059281;28;1008;-30
2023/02/13 11:22:20;;;;;;;;;;;;;;;28.45;18.58;102632.66;5057055;28;1844;-30
2023/02/13 11:24:52;;;;;;;;;;;;;;;28.44;18.54;102638.22;5064447;28;1620;-26
2023/02/13 11:27:21;;;;;;;;;;;;;;;28.48;18.50;102628.78;5054032;28;1099;-28
2023/02/13 11:29:54;;;;;;;;;;;;;;;28.28;18.46;102630.66;5046861;28;1029;-28
2023/02/13 11:32:23;;;;;;;;;;;;;;;28.38;18.31;102627.97;5064462;28;1542;-27
2023/02/13 11:34:53;;;;;;;;;;;;;;;28.34;17.74;102617.41;5078723;28;1906;-28
2023/02/13 11:37:25;;;;;;;;;;;;;;;28.27;17.91;102618.13;5078439;28;1004;-30
2023/02/13 11:39:52;;;;;;;;;;;;;;;28.20;18.30;102616.00;5074753;28;1242;-28
2023/02/13 11:42:25;;;;;;;;;;;;;;;28.35;18.14;102616.44;5060391;28;1849;-28
2023/02/13 11:44:59;;;;;;;;;;;;;;;27.97;18.98;102608.22;5053571;28;933;-31
2023/02/13 11:47:34;;;;;;;;;;;;;;;27.69;23.59;102599.09;5078072;28;1303;-32
2023/02/13 11:49:59;;;;;;;;;;;;;;;27.51;21.82;102589.81;5067461;28;1207;-27
2023/02/13 11:52:31;;;;;;;;;;;;;;;27.47;19.62;102587.53;5054305;28;1235;-33
2023/02/13 11:54:57;;;;;;;;;;;;;;;27.44;19.22;102596.78;5077070;28;1991;-31
2023/02/13 11:57:30;;;;;;;;;;;;;;;27.82;18.15;102585.28;5066020;28;875;-28
2023/02/13 11:59:55;;;;;;;;;;;;;;;27.51;17.88;102562.78;5057904;28;1080;-29
2023/02/13 12:02:24;;;;;;;;;;;;;;;27.64;18.02;102577.88;5072750;28;1166;-30
2023/02/13 12:04:54;;;;;;;;;;;;;;;28.20;18.65;102570.00;5070611;28;1004;-31
2023/02/13 12:07:23;;;;;;;;;;;;;;;28.45;18.50;102567.69;5078115;28;1063;-33
2023/02/13 12:10:12;;;;;;;;;;;;;;;28.52;18.35;102569.78;5077735;28;1140;-27
2023/02/13 12:12:42;;;;;;;;;;;;;;;28.71;18.07;102564.28;5055473;28;1884;-27
2023/02/13 12:15:14;;;;;;;;;;;;;;;28.67;18.56;102570.16;5046048;28;1902;-29
2023/02/13 12:17:39;;;;;;;;;;;;;;;28.01;16.40;102560.06;5077206;28;1039;-30
2023/02/13 12:20:10;;;;;;;;;;;;;;;27.17;14.93;102563.16;5053827;28;1288;-34
2023/02/13 12:22:39;;;;;;;;;;;;;;;26.81;14.27;102552.78;5063771;28;952;-30
2023/02/13 12:25:25;;;;;;;;;;;;;;;27.34;14.83;102555.38;5051672;28;1179;-26
2023/02/13 12:27:50;;;;;;;;;;;;;;;27.69;16.29;102551.28;5077575;28;1322;-27
2023/02/13 12:30:30;;;;;;;;;;;;;;;27.92;14.32;102547.41;5077365;28;1356;-28
2023/02/13 12:32:58;;;;;;;;;;;;;;;27.42;13.84;102541.16;5071107;28;1918;-29
2023/02/13 12:35:23;;;;;;;;;;;;;;;27.41;13.84;102545.69;5059922;28;1107;-29
2023/02/13 12:37:55;;;;;;;;;;;;;;;27.51;13.54;102545.69;5077190;28;988;-32
2023/02/13 12:40:29;;;;;;;;;;;;;;;27.32;13.55;102544.72;5077043;28;1024;-26
2023/02/13 12:43:13;;;;;;;;;;;;;;;27.54;13.04;102534.63;5074405;28;1796;-28
2023/02/13 12:45:42;;;;;;;;;;;;;;;27.47;12.72;102534.34;5076522;28;1222;-30
2023/02/13 12:48:10;;;;;;;;;;;;;;;28.00;14.94;102528.59;5056968;28;1181;-28
2023/02/13 12:50:44;;;;;;;;;;;;;;;28.17;16.18;102540.53;5058516;28;1258;-28
2023/02/13 12:53:16;;;;;;;;;;;;;;;27.91;16.06;102537.59;5076960;28;1910;-27
2023/02/13 12:55:42;;;;;;;;;;;;;;;28.18;16.09;102531.41;5058150;28;1236;-29
2023/02/13 12:58:07;;;;;;;;;;;;;;;28.15;16.43;102530.84;5071959;28;1084;-26
2023/02/13 13:00:51;;;;;;;;;;;;;;;28.31;16.09;102527.53;5067219;28;1135;-31
2023/02/13 13:03:24;;;;;;;;;;;;;;;28.33;16.46;102522.84;5064406;28;1092;-30
2023/02/13 13:05:54;;;;;;;;;;;;;;;28.30;16.57;102523.97;5050005;28;1136;-28
2023/02/13 13:08:38;;;;;;;;;;;;;;;28.35;16.46;102519.00;5047404;28;1192;-28
2023/02/13 13:11:17;;;;;;;;;;;;;;;28.22;16.81;102527.41;5067647;28;1218;-30
2023/02/13 13:13:42;;;;;;;;;;;;;;;28.02;17.13;102526.63;5049457;28;1967;-28
2023/02/13 13:16:10;;;;;;;;;;;;;;;28.21;16.99;102523.00;5072791;28;1242;-32
2023/02/13 13:18:54;;;;;;;;;;;;;;;27.93;17.15;102528.34;5057480;28;1294;-28
2023/02/13 13:21:22;;;;;;;;;;;;;;;27.83;16.94;102522.94;5067355;28;1160;-31
2023/02/13 13:24:07;;;;;;;;;;;;;;;27.87;17.50;102520.81;5073071;28;1462;-29
2023/02/13 13:26:40;;;;;;;;;;;;;;;27.93;17.47;102517.50;5062315;28;1115;-29
2023/02/13 13:29:16;;;;;;;;;;;;;;;27.93;17.82;102517.50;5059055;28;1032;-29
2023/02/13 13:31:41;;;;;;;;;;;;;;;27.72;17.87;102505.03;5068731;28;1121;-31
2023/02/13 13:34:10;;;;;;;;;;;;;;;27.89;17.85;102512.53;5057997;28;1898;-27
2023/02/13 13:36:47;;;;;;;;;;;;;;;27.81;17.53;102510.56;5055544;28;1043;-28
2023/02/13 13:39:15;;;;;;;;;;;;;;;27.81;17.70;102506.00;5056221;28;977;-29
2023/02/13 13:41:42;;;;;;;;;;;;;;;27.82;18.05;102502.31;5056961;28;1821;-28